Strona główna
METAR-TAF:

METAR-TAF

Lotnisko :

Port lotniczy Ryga

Ryga, Łotwa

Szerokość geograficzna: 56-55N, Długość geograficzna: 023-58E, wysokość: 10 m

Aktualna obserwacja pogody

Raport powstał 19 minut temu, godzina 08:20 UTC
Wiatr 9 kt od północ
Temperatura 27°C
Wilgotność 58%
Ciśnienie 1012 hPa
Widzialność 10 km lub więcej
Mało chmury na wysokości 4100 ft

METAR: EVRA 160820Z 36009KT 9999 FEW041 27/18 Q1012 NOSIG

czas: 11:39 (08:39 UTC)

Prognoza

Raport powstał 3 godziny i 39 minut temu, godzina 05:00 UTC
Prognoza ważna od 16 godzina 06 UTC do 17 godzina 06 UTC
Wiatr 7 kt od północ
Widzialność 10 km lub więcej
Brak chmur poniżej 1500 m i brak chmur cumulonimbus
Przejściowo
od 16 godzina 12 UTC do 16 godzina 18 UTC
Rozproszone chmury na wysokości 3000 ft, Cumulonimbus.
Stopniowe zmiany
od 16 godzina 18 UTC do 16 godzina 20 UTC
Wiatr 2 kt z kierunków zmiennych

TAF: EVRA 160500Z 1606/1706 36007KT CAVOK TEMPO 1612/1618 SCT030CB BECMG 1618/1620 VRB02KT

Obserwacja i prognoza pogody dla ponad 4000 lotnisk (raport METAR i TAF).

Dostępne stacje oznaczono żółtymi i czerwonymi punktami na mapie.

Najedź kursorem aby zobaczyć nazwę stacji.

Kliknij aby zobaczyć obserwacje i prognozy pogody.

Aby zmienić mapę: kliknij na zielony przycisk z czarnym krzyżykiem, aby powiększyć; na zielony przycisk z myślnikiem, aby pomniejszyć; na zielone strzałki, aby przejść do map sąsiednich.


METAR-TAF: